createdAt,value
2022-12-05T00:01:13.454Z,5.20
2022-12-05T00:03:39.891Z,5.20
2022-12-05T00:06:06.483Z,5.17
2022-12-05T00:08:32.907Z,5.18
2022-12-05T00:10:59.304Z,5.19
2022-12-05T00:13:25.702Z,5.22
2022-12-05T00:15:52.092Z,5.20
2022-12-05T00:18:18.500Z,5.22
2022-12-05T00:20:46.268Z,5.21
2022-12-05T00:23:12.848Z,5.25
2022-12-05T00:25:39.289Z,5.25
2022-12-05T00:28:08.442Z,5.20
2022-12-05T00:30:34.891Z,5.16
2022-12-05T00:33:01.325Z,5.15
2022-12-05T00:35:27.683Z,5.13
2022-12-05T00:37:54.076Z,5.15
2022-12-05T00:40:20.487Z,5.08
2022-12-05T00:42:52.012Z,5.07
2022-12-05T00:45:18.748Z,5.12
2022-12-05T00:47:45.455Z,5.07
2022-12-05T00:50:11.969Z,5.02
2022-12-05T00:52:38.382Z,5.02
2022-12-05T00:55:05.157Z,5.01
2022-12-05T00:57:32.119Z,4.98
2022-12-05T00:59:58.885Z,4.96
2022-12-05T01:02:25.561Z,4.94
2022-12-05T01:04:52.000Z,4.93
2022-12-05T01:07:18.512Z,4.94
2022-12-05T01:09:44.893Z,4.96
2022-12-05T01:12:11.307Z,4.95
2022-12-05T01:14:37.763Z,4.95
2022-12-05T01:17:04.497Z,4.96
2022-12-05T01:19:32.302Z,4.97
2022-12-05T01:21:59.688Z,4.95
2022-12-05T01:24:27.339Z,4.95
2022-12-05T01:26:54.103Z,4.93
2022-12-05T01:29:22.941Z,4.93
2022-12-05T01:31:49.583Z,4.96
2022-12-05T01:34:17.677Z,4.94
2022-12-05T01:36:44.603Z,4.95
2022-12-05T01:39:12.444Z,4.92
2022-12-05T01:41:45.131Z,4.91
2022-12-05T01:44:11.535Z,4.93
2022-12-05T01:46:46.429Z,4.94
2022-12-05T01:49:18.058Z,4.93
2022-12-05T01:51:50.093Z,4.95
2022-12-05T01:54:18.576Z,4.94
2022-12-05T01:56:51.091Z,4.92
2022-12-05T01:59:20.512Z,4.94
2022-12-05T02:01:47.078Z,4.91
2022-12-05T02:04:14.247Z,4.93
2022-12-05T02:06:41.019Z,4.91
2022-12-05T02:09:07.465Z,4.91
2022-12-05T02:11:35.010Z,4.90
2022-12-05T02:14:10.435Z,4.91
2022-12-05T02:16:44.167Z,4.91
2022-12-05T02:19:59.223Z,4.88
2022-12-05T02:22:34.624Z,4.88
2022-12-05T02:25:18.740Z,4.93
2022-12-05T02:27:53.629Z,4.90
2022-12-05T02:30:22.819Z,4.89
2022-12-05T02:33:09.405Z,4.87
2022-12-05T02:36:17.042Z,4.86
2022-12-05T02:38:57.772Z,4.83
2022-12-05T02:42:02.187Z,4.87
2022-12-05T02:44:57.929Z,4.88
2022-12-05T02:47:29.133Z,4.89
2022-12-05T02:49:58.127Z,4.85
2022-12-05T02:52:26.990Z,4.84
2022-12-05T02:54:55.815Z,4.81
2022-12-05T02:57:22.704Z,4.82
2022-12-05T02:59:49.086Z,4.88
2022-12-05T03:02:27.626Z,4.85
2022-12-05T03:04:57.370Z,4.85
2022-12-05T03:07:27.100Z,4.86
2022-12-05T03:10:02.582Z,4.83
2022-12-05T03:12:33.867Z,4.83
2022-12-05T03:15:09.444Z,4.81
2022-12-05T03:17:44.048Z,4.86
2022-12-05T03:20:20.673Z,4.86
2022-12-05T03:22:56.072Z,4.82
2022-12-05T03:25:26.356Z,4.87
2022-12-05T03:28:02.873Z,4.84
2022-12-05T03:30:30.834Z,4.70
2022-12-05T03:33:03.843Z,4.67
2022-12-05T03:35:42.977Z,4.68
2022-12-05T03:38:28.159Z,4.59
2022-12-05T03:41:20.302Z,4.52
2022-12-05T03:44:05.499Z,4.51
2022-12-05T03:46:41.007Z,4.47
2022-12-05T03:49:10.597Z,4.46
2022-12-05T03:51:47.281Z,4.45
2022-12-05T03:54:32.210Z,4.41
2022-12-05T03:57:05.057Z,4.37
2022-12-05T03:59:50.073Z,4.33
2022-12-05T04:02:28.345Z,4.27
2022-12-05T04:05:01.705Z,4.25
2022-12-05T04:07:30.285Z,4.24
2022-12-05T04:10:02.608Z,4.28
2022-12-05T04:12:32.690Z,4.28
2022-12-05T04:15:06.756Z,4.24
2022-12-05T04:17:53.933Z,4.23
2022-12-05T04:20:47.800Z,4.30
2022-12-05T04:23:14.638Z,4.29
2022-12-05T04:26:11.330Z,4.22
2022-12-05T04:28:46.387Z,4.18
2022-12-05T04:31:19.231Z,4.21
2022-12-05T04:33:54.924Z,4.20
2022-12-05T04:36:32.160Z,4.20
2022-12-05T04:39:05.453Z,4.16
2022-12-05T04:41:36.759Z,4.15
2022-12-05T04:44:08.614Z,4.18
2022-12-05T04:46:38.143Z,4.18
2022-12-05T04:49:08.540Z,4.16
2022-12-05T04:51:37.684Z,4.11
2022-12-05T04:54:18.033Z,4.09
2022-12-05T04:56:48.613Z,4.03
2022-12-05T04:59:15.103Z,4.02
2022-12-05T05:01:47.508Z,4.06
2022-12-05T05:04:19.221Z,4.08
2022-12-05T05:06:48.682Z,4.09
2022-12-05T05:09:15.053Z,4.03
2022-12-05T05:11:41.468Z,4.06
2022-12-05T05:14:07.888Z,4.04
2022-12-05T05:16:39.431Z,4.01
2022-12-05T05:19:07.968Z,4.03
2022-12-05T05:21:37.444Z,4.01
2022-12-05T05:24:05.079Z,4.03
2022-12-05T05:26:34.482Z,4.02
2022-12-05T05:29:01.042Z,4.02
2022-12-05T05:31:27.765Z,4.09
2022-12-05T05:33:56.674Z,4.05
2022-12-05T05:36:24.235Z,4.03
2022-12-05T05:38:53.758Z,3.99
2022-12-05T05:41:25.363Z,3.93
2022-12-05T05:43:52.503Z,3.95
2022-12-05T05:46:21.896Z,3.95
2022-12-05T05:48:48.561Z,3.92
2022-12-05T05:51:16.543Z,3.92
2022-12-05T05:53:43.790Z,3.89
2022-12-05T05:56:20.037Z,3.90
2022-12-05T05:58:48.717Z,3.87
2022-12-05T06:01:22.655Z,3.85
2022-12-05T06:03:50.902Z,3.88
2022-12-05T06:06:18.618Z,3.87
2022-12-05T06:08:45.539Z,3.87
2022-12-05T06:11:24.988Z,3.83
2022-12-05T06:13:53.637Z,3.82
2022-12-05T06:16:21.202Z,3.84
2022-12-05T06:18:49.093Z,3.82
2022-12-05T06:21:16.552Z,3.77
2022-12-05T06:23:43.458Z,3.76
2022-12-05T06:26:15.792Z,3.75
2022-12-05T06:28:42.864Z,3.78
2022-12-05T06:31:15.664Z,3.75
2022-12-05T06:33:42.171Z,3.74
2022-12-05T06:36:11.332Z,3.66
2022-12-05T06:38:42.097Z,3.61
2022-12-05T06:41:11.351Z,3.63
2022-12-05T06:43:37.779Z,3.60
2022-12-05T06:46:05.879Z,3.61
2022-12-05T06:48:32.482Z,3.60
2022-12-05T06:50:58.944Z,3.65
2022-12-05T06:53:25.369Z,3.66
2022-12-05T06:56:00.550Z,3.67
2022-12-05T06:58:28.010Z,3.65
2022-12-05T07:01:13.943Z,3.63
2022-12-05T07:03:40.568Z,3.58
2022-12-05T07:06:07.978Z,3.57
2022-12-05T07:08:34.802Z,3.53
2022-12-05T07:11:02.478Z,3.53
2022-12-05T07:13:29.312Z,3.48
2022-12-05T07:15:55.784Z,3.47
2022-12-05T07:18:23.001Z,3.49
2022-12-05T07:21:15.288Z,3.54
2022-12-05T07:23:43.767Z,3.53
2022-12-05T07:26:13.434Z,3.49
2022-12-05T07:28:39.957Z,3.53
2022-12-05T07:31:09.475Z,3.48
2022-12-05T07:33:36.497Z,3.49
2022-12-05T07:36:09.028Z,3.46
2022-12-05T07:38:35.574Z,3.47
2022-12-05T07:41:12.755Z,3.42
2022-12-05T07:43:39.750Z,3.40
2022-12-05T07:46:08.351Z,3.39
2022-12-05T07:48:34.845Z,3.36
2022-12-05T07:51:03.246Z,3.33
2022-12-05T07:53:31.497Z,3.31
2022-12-05T07:56:03.101Z,3.30
2022-12-05T07:58:30.157Z,3.34
2022-12-05T08:00:57.290Z,3.36
2022-12-05T08:03:23.855Z,3.35
2022-12-05T08:05:50.285Z,3.35
2022-12-05T08:08:16.750Z,3.37
2022-12-05T08:10:43.223Z,3.37
2022-12-05T08:13:09.663Z,3.40
2022-12-05T08:15:36.723Z,3.37
2022-12-05T08:18:03.577Z,3.36
2022-12-05T08:20:30.553Z,3.40
2022-12-05T08:22:57.222Z,3.40
2022-12-05T08:25:23.665Z,3.45
2022-12-05T08:27:50.151Z,3.49
2022-12-05T08:30:16.689Z,3.47
2022-12-05T08:32:43.146Z,3.54
2022-12-05T08:35:10.165Z,3.60
2022-12-05T08:37:36.670Z,3.60
2022-12-05T08:40:04.015Z,3.61
2022-12-05T08:42:30.428Z,3.64
2022-12-05T08:44:57.123Z,3.64
2022-12-05T08:47:23.740Z,3.65
2022-12-05T08:49:50.141Z,3.63
2022-12-05T08:52:16.562Z,3.67
2022-12-05T08:54:42.999Z,3.70
2022-12-05T08:57:09.381Z,3.67
2022-12-05T08:59:35.773Z,3.72
2022-12-05T09:02:02.229Z,3.71
2022-12-05T09:04:28.815Z,3.71
2022-12-05T09:06:55.237Z,3.68
2022-12-05T09:09:21.657Z,3.68
2022-12-05T09:11:50.752Z,3.68
2022-12-05T09:14:18.128Z,3.75
2022-12-05T09:16:46.209Z,3.76
2022-12-05T09:19:17.748Z,3.72
2022-12-05T09:21:44.790Z,3.74
2022-12-05T09:24:13.173Z,3.84
2022-12-05T09:26:40.634Z,3.89
2022-12-05T09:29:08.955Z,3.83
2022-12-05T09:31:42.919Z,3.78
2022-12-05T09:34:09.642Z,3.74
2022-12-05T09:36:36.105Z,3.79
2022-12-05T09:39:05.863Z,3.82
2022-12-05T09:42:07.953Z,3.89
2022-12-05T09:44:46.523Z,3.89
2022-12-05T09:47:31.191Z,3.90
2022-12-05T09:50:02.423Z,3.91
2022-12-05T09:52:35.743Z,3.83
2022-12-05T09:55:12.829Z,3.87
2022-12-05T09:57:45.322Z,3.84
2022-12-05T10:00:12.390Z,3.79
2022-12-05T10:03:33.769Z,3.75
2022-12-05T10:06:12.140Z,3.78
2022-12-05T10:09:00.977Z,3.77
2022-12-05T10:11:46.135Z,3.74
2022-12-05T10:14:38.990Z,3.72
2022-12-05T10:17:23.636Z,3.71
2022-12-05T10:19:53.818Z,3.73
2022-12-05T10:22:28.224Z,3.75
2022-12-05T10:25:00.719Z,3.75
2022-12-05T10:27:40.098Z,3.70
2022-12-05T10:30:16.032Z,3.70
2022-12-05T10:33:09.488Z,3.70
2022-12-05T10:35:39.273Z,3.70
2022-12-05T10:38:23.841Z,3.76
2022-12-05T10:40:53.452Z,3.79
2022-12-05T10:43:26.378Z,3.79
2022-12-05T10:45:53.200Z,3.82
2022-12-05T10:48:21.429Z,3.90
2022-12-05T10:50:50.781Z,3.95
2022-12-05T10:53:20.934Z,3.99
2022-12-05T10:56:21.268Z,3.96
2022-12-05T10:58:36.170Z,3.97
2022-12-05T11:01:14.132Z,3.94
2022-12-05T11:03:43.421Z,3.96
2022-12-05T11:06:28.669Z,4.00
2022-12-05T11:09:06.039Z,4.01
2022-12-05T11:11:33.857Z,4.03
2022-12-05T11:14:06.688Z,4.01
2022-12-05T11:16:38.492Z,3.98
2022-12-05T11:19:34.458Z,4.01
2022-12-05T11:22:01.932Z,4.02
2022-12-05T11:24:31.432Z,4.03
2022-12-05T11:26:59.992Z,4.05
2022-12-05T11:29:38.032Z,4.01
2022-12-05T11:32:17.321Z,3.97
2022-12-05T11:34:52.354Z,3.99
2022-12-05T11:37:25.081Z,3.98
2022-12-05T11:39:52.236Z,3.94
2022-12-05T11:42:32.757Z,3.95
2022-12-05T11:45:13.304Z,4.01
2022-12-05T11:47:50.109Z,4.01
2022-12-05T11:50:36.147Z,4.05
2022-12-05T11:53:11.584Z,4.06
2022-12-05T11:55:51.129Z,4.05
2022-12-05T11:58:38.051Z,4.05
2022-12-05T12:01:52.476Z,4.05
2022-12-05T12:04:55.134Z,4.06
2022-12-05T12:07:50.420Z,4.03
2022-12-05T12:10:32.184Z,4.06
2022-12-05T12:13:08.958Z,4.07
2022-12-05T12:16:08.909Z,4.07
2022-12-05T12:18:44.675Z,4.10
2022-12-05T12:21:38.781Z,4.12
2022-12-05T12:24:29.720Z,4.15
2022-12-05T12:27:16.892Z,4.13
2022-12-05T12:30:03.803Z,4.15
2022-12-05T12:32:48.654Z,4.16
2022-12-05T12:35:28.114Z,4.17
2022-12-05T12:38:32.198Z,4.22
2022-12-05T12:41:36.445Z,4.25
2022-12-05T12:44:16.726Z,4.26
2022-12-05T12:46:43.082Z,4.27
2022-12-05T12:49:40.493Z,4.35
2022-12-05T12:52:30.528Z,4.32
2022-12-05T12:55:21.828Z,4.42
2022-12-05T12:58:04.345Z,4.38
2022-12-05T13:00:39.774Z,4.37
2022-12-05T13:03:17.693Z,4.33
2022-12-05T13:05:56.006Z,4.38
2022-12-05T13:08:35.347Z,4.33
2022-12-05T13:11:05.714Z,4.30
2022-12-05T13:13:36.919Z,4.33
2022-12-05T13:16:07.809Z,4.28
2022-12-05T13:18:35.534Z,4.32
2022-12-05T13:21:09.046Z,4.27
2022-12-05T13:23:52.425Z,4.22
2022-12-05T13:26:19.395Z,4.26
2022-12-05T13:28:48.935Z,4.31
2022-12-05T13:31:18.024Z,4.25
2022-12-05T13:33:50.047Z,4.28
2022-12-05T13:36:38.973Z,4.27
2022-12-05T13:39:34.375Z,4.27
2022-12-05T13:42:16.257Z,4.25
2022-12-05T13:44:46.760Z,4.25
2022-12-05T13:47:52.359Z,4.25
2022-12-05T13:50:25.391Z,4.29
2022-12-05T13:52:55.212Z,4.28
2022-12-05T13:55:35.561Z,4.27
2022-12-05T13:58:23.296Z,4.28
2022-12-05T14:01:24.676Z,4.31
2022-12-05T14:03:51.201Z,4.37
2022-12-05T14:06:41.815Z,4.36
2022-12-05T14:09:51.483Z,4.40
2022-12-05T14:12:23.839Z,4.43
2022-12-05T14:15:02.056Z,4.46
2022-12-05T14:17:32.275Z,4.50
2022-12-05T14:20:20.015Z,4.51
2022-12-05T14:22:46.713Z,4.56
2022-12-05T14:25:57.675Z,4.61
2022-12-05T14:28:49.297Z,4.63
2022-12-05T14:31:35.117Z,4.57
2022-12-05T14:34:15.168Z,4.54
2022-12-05T14:36:56.667Z,4.51
2022-12-05T14:39:33.177Z,4.51
2022-12-05T14:42:01.374Z,4.45
2022-12-05T14:44:32.170Z,4.46
2022-12-05T14:47:05.686Z,4.47
2022-12-05T14:49:53.812Z,4.46
2022-12-05T14:52:25.336Z,4.47
2022-12-05T14:55:26.823Z,4.47
2022-12-05T14:57:54.010Z,4.43
2022-12-05T15:00:23.088Z,4.43
2022-12-05T15:02:52.561Z,4.41
2022-12-05T15:05:31.972Z,4.43
2022-12-05T15:08:00.094Z,4.42
2022-12-05T15:10:34.697Z,4.41
2022-12-05T15:13:07.570Z,4.37
2022-12-05T15:15:44.792Z,4.37
2022-12-05T15:18:23.159Z,4.41
2022-12-05T15:21:04.473Z,4.41
2022-12-05T15:23:44.821Z,4.37
2022-12-05T15:29:21.097Z,4.42
2022-12-05T15:31:50.509Z,4.37
2022-12-05T15:34:31.999Z,4.31
2022-12-05T15:37:36.957Z,4.30
2022-12-05T15:40:11.068Z,4.28
2022-12-05T15:42:45.704Z,4.27
2022-12-05T15:45:12.153Z,4.25
2022-12-05T15:47:39.736Z,4.25
2022-12-05T15:50:12.065Z,4.29
2022-12-05T15:52:53.979Z,4.26
2022-12-05T15:55:29.950Z,4.25
2022-12-05T15:58:12.613Z,4.27
2022-12-05T16:00:44.051Z,4.28
2022-12-05T16:03:26.151Z,4.27
2022-12-05T16:05:57.381Z,4.27
2022-12-05T16:08:24.677Z,4.27
2022-12-05T16:10:51.928Z,4.26
2022-12-05T16:13:24.950Z,4.23
2022-12-05T16:15:54.138Z,4.23
2022-12-05T16:18:31.899Z,4.19
2022-12-05T16:20:58.592Z,4.21
2022-12-05T16:23:32.335Z,4.28
2022-12-05T16:26:13.936Z,4.29
2022-12-05T16:28:40.385Z,4.33
2022-12-05T16:31:07.362Z,4.27
2022-12-05T16:33:35.660Z,4.26
2022-12-05T16:36:10.135Z,4.29
2022-12-05T16:38:37.539Z,4.29
2022-12-05T16:41:07.097Z,4.27
2022-12-05T16:43:33.647Z,4.28
2022-12-05T16:46:15.297Z,4.22
2022-12-05T16:48:49.754Z,4.26
2022-12-05T16:51:26.993Z,4.28
2022-12-05T16:53:55.150Z,4.19
2022-12-05T16:56:32.793Z,4.19
2022-12-05T16:59:03.889Z,4.20
2022-12-05T17:01:33.248Z,4.19
2022-12-05T17:04:03.803Z,4.20
2022-12-05T17:06:30.409Z,4.20
2022-12-05T17:09:00.178Z,4.28
2022-12-05T17:11:30.471Z,4.22
2022-12-05T17:13:58.478Z,4.14
2022-12-05T17:16:26.608Z,4.13
2022-12-05T17:18:53.308Z,4.14
2022-12-05T17:21:23.112Z,4.10
2022-12-05T17:23:51.131Z,4.12
2022-12-05T17:26:20.838Z,4.13
2022-12-05T17:28:47.868Z,4.15
2022-12-05T17:31:17.390Z,4.09
2022-12-05T17:33:44.869Z,4.15
2022-12-05T17:36:12.019Z,4.13
2022-12-05T17:38:38.804Z,4.07
2022-12-05T17:41:07.435Z,4.04
2022-12-05T17:43:34.285Z,3.99
2022-12-05T17:46:01.051Z,4.02
2022-12-05T17:48:27.669Z,4.02
2022-12-05T17:50:57.619Z,3.94
2022-12-05T17:53:24.348Z,3.90
2022-12-05T17:55:50.934Z,3.89
2022-12-05T17:58:17.777Z,3.87
2022-12-05T18:00:45.965Z,3.87
2022-12-05T18:03:14.304Z,3.79
2022-12-05T18:05:40.817Z,3.72
2022-12-05T18:08:08.231Z,3.69
2022-12-05T18:10:34.748Z,3.71
2022-12-05T18:13:01.191Z,3.70
2022-12-05T18:15:27.625Z,3.69
2022-12-05T18:17:55.532Z,3.65
2022-12-05T18:20:21.946Z,3.67
2022-12-05T18:22:48.772Z,3.60
2022-12-05T18:25:15.169Z,3.58
2022-12-05T18:27:41.553Z,3.58
2022-12-05T18:30:08.480Z,3.57
2022-12-05T18:32:34.925Z,3.50
2022-12-05T18:35:04.138Z,3.48
2022-12-05T18:37:36.539Z,3.46
2022-12-05T18:40:04.612Z,3.42
2022-12-05T18:42:31.440Z,3.39
2022-12-05T18:44:58.533Z,3.39
2022-12-05T18:47:25.388Z,3.36
2022-12-05T18:49:51.801Z,3.36
2022-12-05T18:52:18.239Z,3.34
2022-12-05T18:54:45.997Z,3.35
2022-12-05T18:57:17.200Z,3.33
2022-12-05T18:59:43.643Z,3.32
2022-12-05T19:02:11.701Z,3.33
2022-12-05T19:04:38.122Z,3.33
2022-12-05T19:07:04.564Z,3.30
2022-12-05T19:09:32.324Z,3.33
2022-12-05T19:11:59.724Z,3.29
2022-12-05T19:14:29.368Z,3.34
2022-12-05T19:16:59.797Z,3.33
2022-12-05T19:19:27.680Z,3.33
2022-12-05T19:21:55.306Z,3.32
2022-12-05T19:24:21.924Z,3.33
2022-12-05T19:26:48.360Z,3.40
2022-12-05T19:29:15.909Z,3.39
2022-12-05T19:31:43.125Z,3.38
2022-12-05T19:34:10.566Z,3.35
2022-12-05T19:36:46.197Z,3.31
2022-12-05T19:39:18.625Z,3.31
2022-12-05T19:41:45.534Z,3.33
2022-12-05T19:44:12.431Z,3.31
2022-12-05T19:46:39.252Z,3.32
2022-12-05T19:49:09.390Z,3.31
2022-12-05T19:51:35.931Z,3.31
2022-12-05T19:54:05.053Z,3.39
2022-12-05T19:56:33.141Z,3.33
2022-12-05T19:58:59.942Z,3.39
2022-12-05T20:01:34.944Z,3.36
2022-12-05T20:04:10.225Z,3.38
2022-12-05T20:06:39.800Z,3.33
2022-12-05T20:09:07.655Z,3.33
2022-12-05T20:11:34.410Z,3.37
2022-12-05T20:14:01.741Z,3.37
2022-12-05T20:16:29.565Z,3.36
2022-12-05T20:18:59.211Z,3.37
2022-12-05T20:21:27.675Z,3.37
2022-12-05T20:23:54.587Z,3.34
2022-12-05T20:26:24.028Z,3.32
2022-12-05T20:28:51.421Z,3.31
2022-12-05T20:31:20.967Z,3.30
2022-12-05T20:33:49.530Z,3.32
2022-12-05T20:36:18.664Z,3.33
2022-12-05T20:38:46.436Z,3.37
2022-12-05T20:41:17.862Z,3.37
2022-12-05T20:43:45.977Z,3.34
2022-12-05T20:46:17.430Z,3.36
2022-12-05T20:48:44.211Z,3.36
2022-12-05T20:51:16.798Z,3.39
2022-12-05T20:53:45.556Z,3.40
2022-12-05T20:56:20.300Z,3.44
2022-12-05T20:58:50.432Z,3.43
2022-12-05T21:01:18.255Z,3.39
2022-12-05T21:03:47.941Z,3.42
2022-12-05T21:06:21.795Z,3.41
2022-12-05T21:08:48.532Z,3.36
2022-12-05T21:11:15.351Z,3.35
2022-12-05T21:13:41.872Z,3.35
2022-12-05T21:16:19.622Z,3.39
2022-12-05T21:18:47.099Z,3.34
2022-12-05T21:21:16.096Z,3.32
2022-12-05T21:23:43.918Z,3.31
2022-12-05T21:26:13.431Z,3.30
2022-12-05T21:28:41.137Z,3.28
2022-12-05T21:31:13.643Z,3.27
2022-12-05T21:33:42.050Z,3.23
2022-12-05T21:36:09.207Z,3.22
2022-12-05T21:38:35.868Z,3.22
2022-12-05T21:41:03.891Z,3.25
2022-12-05T21:43:30.830Z,3.24
2022-12-05T21:45:57.359Z,3.19
2022-12-05T21:48:24.422Z,3.15
2022-12-05T21:50:51.311Z,3.14
2022-12-05T21:53:18.162Z,3.14
2022-12-05T21:55:45.402Z,3.10
2022-12-05T21:58:12.250Z,3.07
2022-12-05T22:00:39.344Z,3.05
2022-12-05T22:03:06.385Z,3.02
2022-12-05T22:05:33.769Z,3.00
2022-12-05T22:08:03.587Z,2.93
2022-12-05T22:10:36.888Z,2.87
2022-12-05T22:13:03.841Z,2.83
2022-12-05T22:15:30.567Z,2.78
2022-12-05T22:17:57.093Z,2.74
2022-12-05T22:20:24.104Z,2.72
2022-12-05T22:22:50.573Z,2.66
2022-12-05T22:25:16.981Z,2.62
2022-12-05T22:27:43.459Z,2.53
2022-12-05T22:30:10.095Z,2.45
2022-12-05T22:32:36.502Z,2.41
2022-12-05T22:35:04.340Z,2.40
2022-12-05T22:37:31.470Z,2.31
2022-12-05T22:39:58.399Z,2.30
2022-12-05T22:42:26.383Z,2.25
2022-12-05T22:44:52.816Z,2.19
2022-12-05T22:47:19.240Z,2.12
2022-12-05T22:49:45.625Z,2.06
2022-12-05T22:52:12.085Z,2.00
2022-12-05T22:54:39.168Z,1.96
2022-12-05T22:57:05.776Z,1.96
2022-12-05T22:59:32.521Z,1.93
2022-12-05T23:01:58.988Z,1.89
2022-12-05T23:04:25.529Z,1.83
2022-12-05T23:06:52.162Z,1.73
2022-12-05T23:09:18.826Z,1.71
2022-12-05T23:11:45.269Z,1.69
2022-12-05T23:14:11.725Z,1.67
2022-12-05T23:16:38.461Z,1.65
2022-12-05T23:19:05.834Z,1.66
2022-12-05T23:21:41.575Z,1.64
2022-12-05T23:24:12.756Z,1.65
2022-12-05T23:26:44.768Z,1.66
2022-12-05T23:29:12.655Z,1.72
2022-12-05T23:31:40.271Z,1.77
2022-12-05T23:34:07.688Z,1.83
2022-12-05T23:36:34.710Z,1.87
2022-12-05T23:39:01.763Z,1.92
2022-12-05T23:41:28.654Z,1.97
2022-12-05T23:43:55.471Z,2.04
2022-12-05T23:46:25.176Z,2.10
2022-12-05T23:48:51.999Z,2.16
2022-12-05T23:51:27.403Z,2.23
2022-12-05T23:53:55.356Z,2.27
2022-12-05T23:56:25.363Z,2.33
2022-12-05T23:58:53.077Z,2.36
